Time;durP1;ratioP1;P1;durP2;ratioP2;P2;SDS_P1;SDS_P2;PMS_P1;PMS_P2;Temp;Humidity;BMP_temperature;BMP_pressure;BME280_temperature;BME280_humidity;BME280_pressure;Samples;Min_cycle;Max_cycle;Signal;HPM_P1;HPM_P2
2022/12/13 00:01:20;;;;;;;40.47;18.70;;;;;;;-3.58;100.00;101359.06;5031090;28;20037;-61
2022/12/13 00:03:46;;;;;;;37.80;16.80;;;;;;;-3.62;100.00;101352.06;5029961;28;20025;-64
2022/12/13 00:06:12;;;;;;;39.20;17.60;;;;;;;-3.67;100.00;101356.22;5030536;28;20026;-65
2022/12/13 00:08:38;;;;;;;34.58;18.23;;;;;;;-3.70;100.00;101350.97;5031080;28;20056;-62
2022/12/13 00:11:06;;;;;;;38.50;17.70;;;;;;;-3.72;100.00;101352.59;5030287;28;20029;-64
2022/12/13 00:13:32;;;;;;;38.20;17.13;;;;;;;-3.73;100.00;101345.72;5029091;28;20750;-64
2022/12/13 00:16:02;;;;;;;38.38;18.45;;;;;;;-3.76;100.00;101345.59;5030177;28;20025;-66
2022/12/13 00:18:28;;;;;;;40.15;19.15;;;;;;;-3.75;100.00;101344.78;5028593;28;20033;-62
2022/12/13 00:20:53;;;;;;;40.42;18.13;;;;;;;-3.76;100.00;101346.50;5015435;28;20239;-65
2022/12/13 00:23:19;;;;;;;38.30;17.25;;;;;;;-3.76;100.00;101345.59;5009948;28;20113;-66
2022/12/13 00:25:44;;;;;;;38.78;17.55;;;;;;;-3.77;100.00;101346.44;5010108;28;20109;-62
2022/12/13 00:28:10;;;;;;;45.75;17.95;;;;;;;-3.79;100.00;101346.38;5009824;28;20060;-63
2022/12/13 00:30:36;;;;;;;35.65;16.77;;;;;;;-3.82;100.00;101344.56;5010520;28;20523;-65
2022/12/13 00:33:02;;;;;;;39.58;18.17;;;;;;;-3.83;100.00;101342.81;5016024;28;20029;-69
2022/12/13 00:35:27;;;;;;;34.22;16.10;;;;;;;-3.86;100.00;101344.41;5048294;28;20048;-66
2022/12/13 00:37:52;;;;;;;43.63;17.38;;;;;;;-3.86;100.00;101342.72;5037817;28;20128;-66
2022/12/13 00:40:18;;;;;;;41.20;17.75;;;;;;;-3.87;100.00;101346.13;5029463;28;20053;-62
2022/12/13 00:42:43;;;;;;;40.97;17.95;;;;;;;-3.89;100.00;101334.03;5029089;28;20578;-65
2022/12/13 00:45:09;;;;;;;40.22;17.52;;;;;;;-3.91;100.00;101330.50;5029429;28;20531;-64
2022/12/13 00:47:35;;;;;;;34.72;16.98;;;;;;;-3.92;100.00;101332.19;5029530;28;20447;-65
2022/12/13 00:50:01;;;;;;;31.52;16.02;;;;;;;-3.94;100.00;101326.13;5028384;28;20029;-65
2022/12/13 00:52:26;;;;;;;35.47;16.40;;;;;;;-3.96;100.00;101326.09;5029712;28;20189;-65
2022/12/13 00:54:51;;;;;;;40.88;17.90;;;;;;;-3.98;100.00;101319.09;5030242;28;20030;-61
2022/12/13 00:57:17;;;;;;;41.70;17.70;;;;;;;-3.99;100.00;101322.53;5029488;28;20452;-64
2022/12/13 00:59:42;;;;;;;35.53;16.92;;;;;;;-3.99;100.00;101319.94;5029752;28;20053;-66
2022/12/13 01:02:07;;;;;;;31.55;16.05;;;;;;;-3.98;100.00;101321.69;5028951;28;20033;-64
2022/12/13 01:04:33;;;;;;;38.70;18.50;;;;;;;-4.01;100.00;101321.63;5028804;28;20029;-64
2022/12/13 01:06:58;;;;;;;43.70;17.98;;;;;;;-4.04;100.00;101318.94;5029233;28;20025;-61
2022/12/13 01:09:32;;;;;;;34.20;16.90;;;;;;;-4.06;100.00;101316.31;5028641;28;20017;-64
2022/12/13 01:12:03;;;;;;;39.80;17.17;;;;;;;-4.09;100.00;101313.63;5028486;28;20429;-67
2022/12/13 01:14:29;;;;;;;40.92;17.02;;;;;;;-4.08;100.00;101323.97;5028293;28;20060;-66
2022/12/13 01:16:54;;;;;;;36.30;17.60;;;;;;;-4.10;100.00;101319.56;5029693;28;20087;-60
2022/12/13 01:19:24;;;;;;;36.22;17.77;;;;;;;-4.13;100.00;101312.63;5029457;28;20074;-68
2022/12/13 01:21:58;;;;;;;33.78;17.13;;;;;;;-4.15;100.00;101315.97;5040334;28;20029;-65
2022/12/13 01:24:24;;;;;;;38.75;16.58;;;;;;;-4.18;100.00;101309.88;5048220;28;20040;-64
2022/12/13 01:26:51;;;;;;;44.28;17.88;;;;;;;-4.19;100.00;101309.84;5048782;28;20017;-62
2022/12/13 01:29:17;;;;;;;39.13;17.42;;;;;;;-4.19;100.00;101317.56;5049108;28;20025;-68
2022/12/13 01:31:42;;;;;;;32.65;15.70;;;;;;;-4.21;100.00;101320.06;5049257;28;20399;-66
2022/12/13 01:34:11;;;;;;;35.60;17.17;;;;;;;-4.20;100.00;101326.09;5048831;28;20109;-59
2022/12/13 01:36:37;;;;;;;;;;;;;;;-4.20;100.00;101319.28;5048163;28;20044;-64
2022/12/13 01:39:03;;;;;;;32.47;15.35;;;;;;;-4.24;100.00;101311.38;5048886;28;20363;-64
2022/12/13 01:41:28;;;;;;;40.35;16.00;;;;;;;-4.24;100.00;101311.38;5049250;28;20090;-62
2022/12/13 01:44:05;;;;;;;38.30;17.42;;;;;;;-4.25;100.00;101313.06;5049912;28;20068;-64
2022/12/13 01:46:34;;;;;;;42.10;17.58;;;;;;;-4.21;100.00;101314.06;5049442;28;20131;-66
2022/12/13 01:49:06;;;;;;;44.20;19.02;;;;;;;-4.14;100.00;101303.16;5048214;28;20024;-65
2022/12/13 01:51:40;;;;;;;46.70;18.77;;;;;;;-4.17;100.00;101308.19;5029422;28;20048;-66
2022/12/13 01:54:08;;;;;;;38.17;17.10;;;;;;;-4.20;100.00;101306.41;5027284;28;20031;-64
2022/12/13 01:56:37;;;;;;;38.63;18.27;;;;;;;-4.14;100.00;101305.72;5028697;28;20093;-65
2022/12/13 01:59:04;;;;;;;38.20;18.30;;;;;;;-4.11;100.00;101308.41;5029245;28;20029;-64
2022/12/13 02:01:30;;;;;;;49.70;17.83;;;;;;;-4.02;100.00;101301.81;5031872;28;20107;-66
2022/12/13 02:03:55;;;;;;;35.25;17.40;;;;;;;-4.02;100.00;101306.97;5013057;28;20037;-61
2022/12/13 02:06:34;;;;;;;41.20;17.88;;;;;;;-4.01;100.00;101306.16;5032478;28;20056;-65
2022/12/13 02:09:00;;;;;;;38.55;17.05;;;;;;;-3.98;100.00;101301.09;5032674;28;20559;-63
2022/12/13 02:11:26;;;;;;;43.00;17.90;;;;;;;-4.01;100.00;101301.00;5031467;28;20448;-63
2022/12/13 02:13:52;;;;;;;36.67;16.52;;;;;;;-4.04;100.00;101304.34;5032625;28;20078;-64
2022/12/13 02:16:59;;;;;;;35.47;16.70;;;;;;;-4.07;100.00;101301.66;5032303;28;20029;-67
2022/12/13 02:19:33;;;;;;;28.30;15.32;;;;;;;-4.09;100.00;101305.91;4951846;28;20124;-61
2022/12/13 02:22:14;;;;;;;37.08;16.20;;;;;;;-4.10;100.00;101305.00;5030862;28;20452;-66
2022/12/13 02:24:51;;;;;;;38.97;17.70;;;;;;;-4.04;100.00;101306.91;5030570;28;20045;-58
2022/12/13 02:27:30;;;;;;;37.58;17.35;;;;;;;-4.04;100.00;101300.91;5029972;28;20034;-65
2022/12/13 02:30:28;;;;;;;38.08;16.27;;;;;;;-4.05;100.00;101297.44;5030396;28;20047;-62
2022/12/13 02:33:09;;;;;;;42.25;18.58;;;;;;;-4.07;100.00;101292.25;5030351;28;20679;-66
2022/12/13 02:35:37;;;;;;;33.58;17.35;;;;;;;-4.08;100.00;101292.19;5029434;28;20456;-65
2022/12/13 02:38:02;;;;;;;36.90;18.27;;;;;;;-4.06;100.00;101287.97;5030273;28;20045;-66
2022/12/13 02:40:38;;;;;;;46.53;17.73;;;;;;;-4.07;100.00;101286.22;5031801;28;20022;-65
2022/12/13 02:43:08;;;;;;;41.53;17.80;;;;;;;-4.13;100.00;101281.75;5030059;28;20051;-65
2022/12/13 02:45:48;;;;;;;43.60;18.48;;;;;;;-4.10;100.00;101280.94;5030266;28;20022;-66
2022/12/13 02:48:18;;;;;;;36.60;18.17;;;;;;;-4.08;100.00;101284.47;5030733;28;20037;-66
2022/12/13 02:50:45;;;;;;;43.55;17.90;;;;;;;-4.05;100.00;101284.56;5029641;28;20041;-63
2022/12/13 02:53:10;;;;;;;36.25;17.63;;;;;;;-4.01;100.00;101288.16;5031351;28;20100;-65
2022/12/13 02:55:39;;;;;;;42.38;19.35;;;;;;;-3.96;100.00;101281.44;5029477;28;20120;-63
2022/12/13 02:58:04;;;;;;;39.53;19.25;;;;;;;-3.92;100.00;101278.13;5030849;28;20108;-66
2022/12/13 03:00:58;;;;;;;45.58;19.33;;;;;;;-3.88;100.00;101280.00;5031489;28;20025;-67
2022/12/13 03:03:39;;;;;;;45.45;17.98;;;;;;;-3.85;100.00;101277.50;5023588;28;20041;-66
2022/12/13 03:06:37;;;;;;;47.00;19.20;;;;;;;-3.76;100.00;101283.78;5030023;28;20025;-63
2022/12/13 03:09:29;;;;;;;40.75;18.13;;;;;;;-3.72;100.00;101273.63;5008218;28;20043;-65
2022/12/13 03:15:44;;;;;;;41.83;18.33;;;;;;;-3.71;100.00;101279.66;5026850;28;20041;-64
2022/12/13 03:18:15;;;;;;;39.70;18.42;;;;;;;-3.70;100.00;101291.72;5044323;28;20025;-63
2022/12/13 03:20:46;;;;;;;38.00;18.50;;;;;;;-3.71;100.00;101287.38;5029491;28;20022;-65
2022/12/13 03:23:12;;;;;;;40.03;18.20;;;;;;;-3.72;100.00;101283.06;5030438;28;20022;-65
2022/12/13 03:25:37;;;;;;;38.47;18.70;;;;;;;-3.73;100.00;101289.03;5029913;28;20491;-60
2022/12/13 03:28:03;;;;;;;34.28;16.20;;;;;;;-3.82;100.00;101290.47;5030786;28;20384;-63
2022/12/13 03:30:32;;;;;;;34.13;16.48;;;;;;;-3.83;100.00;101286.16;5031100;28;20025;-66
2022/12/13 03:32:57;;;;;;;41.25;18.40;;;;;;;-3.90;100.00;101294.50;5030149;28;20104;-66
2022/12/13 03:35:23;;;;;;;44.22;17.98;;;;;;;-3.91;100.00;101290.19;5031105;28;20160;-65
2022/12/13 03:37:49;;;;;;;40.50;19.05;;;;;;;-3.88;100.00;101287.72;5030542;28;20500;-65
2022/12/13 03:40:14;;;;;;;38.40;18.42;;;;;;;-3.89;100.00;101285.94;5030356;28;20037;-63
2022/12/13 03:42:40;;;;;;;32.28;17.13;;;;;;;-3.92;100.00;101285.84;5030597;28;20029;-65
2022/12/13 03:45:05;;;;;;;37.60;18.50;;;;;;;-3.89;100.00;101283.38;5030030;28;20029;-64
2022/12/13 03:47:31;;;;;;;31.73;17.42;;;;;;;-3.91;100.00;101279.91;5030669;28;20490;-65
2022/12/13 03:49:56;;;;;;;41.67;17.17;;;;;;;-3.88;100.00;101273.97;5028908;28;20483;-65
2022/12/13 03:52:21;;;;;;;35.38;17.60;;;;;;;-3.83;100.00;101280.13;5031007;28;20504;-64
2022/12/13 03:54:46;;;;;;;37.50;16.67;;;;;;;-3.83;100.00;101281.00;5028965;28;20025;-65
2022/12/13 03:57:14;;;;;;;46.95;18.63;;;;;;;-3.86;100.00;101275.75;5030333;28;20026;-65
2022/12/13 03:59:39;;;;;;;40.25;17.25;;;;;;;-3.92;100.00;101274.69;5030548;28;20090;-65
2022/12/13 04:02:05;;;;;;;33.28;17.52;;;;;;;-3.90;100.00;101284.22;5030256;28;20479;-62
2022/12/13 04:04:30;;;;;;;36.80;17.17;;;;;;;-3.94;100.00;101274.66;5029692;28;20049;-66
2022/12/13 04:06:55;;;;;;;37.55;17.92;;;;;;;-3.96;100.00;101273.72;5030275;28;20061;-65
2022/12/13 04:09:21;;;;;;;39.17;18.95;;;;;;;-3.96;100.00;101271.13;5030831;28;20022;-66
2022/12/13 04:14:30;;;;;;;38.25;17.88;;;;;;;-3.95;100.00;101272.88;5045726;28;20116;-66
2022/12/13 04:16:55;;;;;;;34.20;17.10;;;;;;;-3.98;100.00;101267.63;5049344;28;20112;-62
2022/12/13 04:19:20;;;;;;;42.60;19.52;;;;;;;-3.98;100.00;101270.19;5049083;28;20594;-65
2022/12/13 04:21:46;;;;;;;40.85;18.35;;;;;;;-4.02;100.00;101270.94;5049888;28;20036;-62
2022/12/13 04:24:11;;;;;;;34.35;17.85;;;;;;;-4.08;100.00;101271.59;5048821;28;20033;-68
2022/12/13 04:26:36;;;;;;;36.15;16.42;;;;;;;-4.14;100.00;101267.13;5049727;28;20510;-65
2022/12/13 04:29:02;;;;;;;41.83;18.00;;;;;;;-4.16;100.00;101267.91;5049431;28;20472;-65
2022/12/13 04:31:27;;;;;;;36.58;17.65;;;;;;;-4.20;100.00;101260.06;5049734;28;20535;-60
2022/12/13 04:33:52;;;;;;;33.65;17.27;;;;;;;-4.13;100.00;101260.28;5047281;28;20035;-65
2022/12/13 04:36:20;;;;;;;44.03;18.02;;;;;;;-4.03;100.00;101258.88;5049082;28;20025;-65
2022/12/13 04:38:46;;;;;;;43.17;17.58;;;;;;;-3.97;100.00;101266.81;5047980;28;20041;-65
2022/12/13 04:41:16;;;;;;;42.63;18.08;;;;;;;-3.90;100.00;101265.31;5048908;28;20025;-66
2022/12/13 04:43:41;;;;;;;43.67;17.42;;;;;;;-3.92;100.00;101259.25;5049340;28;20053;-64
2022/12/13 04:46:07;;;;;;;43.90;20.42;;;;;;;-3.83;100.00;101262.97;5048979;28;20102;-63
2022/12/13 04:48:33;;;;;;;37.60;18.83;;;;;;;-3.82;100.00;101257.00;5048669;28;20017;-61
2022/12/13 04:50:59;;;;;;;41.20;18.73;;;;;;;-3.87;100.00;101263.72;5049251;28;20057;-65
2022/12/13 04:53:24;;;;;;;40.58;17.83;;;;;;;-3.91;100.00;101267.03;5049313;28;20114;-59
2022/12/13 04:55:50;;;;;;;47.85;18.90;;;;;;;-3.83;100.00;101260.41;5048991;28;20106;-64
2022/12/13 04:58:15;;;;;;;38.85;18.10;;;;;;;-3.77;100.00;101256.28;5029279;28;20031;-67
2022/12/13 05:00:40;;;;;;;41.17;17.92;;;;;;;-3.81;100.00;101261.34;5028549;28;20643;-63
2022/12/13 05:03:06;;;;;;;36.78;16.88;;;;;;;-3.85;100.00;101264.63;5027109;28;20652;-64
2022/12/13 05:05:31;;;;;;;37.78;18.33;;;;;;;-3.92;100.00;101257.53;5029252;28;20510;-60
2022/12/13 05:07:57;;;;;;;41.13;17.10;;;;;;;-3.92;100.00;101254.09;5028830;28;20029;-60
2022/12/13 05:10:22;;;;;;;39.03;17.85;;;;;;;-3.89;100.00;101255.06;5030091;28;20029;-65
2022/12/13 05:12:47;;;;;;;42.40;19.27;;;;;;;-3.86;100.00;101255.16;5029731;28;20075;-65
2022/12/13 05:15:13;;;;;;;38.40;18.13;;;;;;;-3.89;100.00;101254.19;5029615;28;20052;-66
2022/12/13 05:17:38;;;;;;;44.78;18.70;;;;;;;-3.98;100.00;101254.75;5028693;28;20105;-65
2022/12/13 05:20:04;;;;;;;41.40;18.38;;;;;;;-4.03;100.00;101257.19;5029520;28;20030;-64
2022/12/13 05:22:29;;;;;;;35.63;16.98;;;;;;;-4.10;100.00;101258.69;5028116;28;20037;-66
2022/12/13 05:24:54;;;;;;;35.58;16.35;;;;;;;-4.15;100.00;101255.09;5029504;28;20053;-61
2022/12/13 05:27:20;;;;;;;35.38;17.27;;;;;;;-4.18;100.00;101249.84;5027093;28;20102;-64
2022/12/13 05:29:45;;;;;;;38.55;18.30;;;;;;;-4.19;100.00;101253.22;5029565;28;20053;-64
2022/12/13 05:32:10;;;;;;;42.03;17.40;;;;;;;-4.15;100.00;101249.94;5028969;28;20030;-60
2022/12/13 05:34:36;;;;;;;48.92;21.67;;;;;;;-3.88;100.00;101256.81;5031205;28;20108;-63
2022/12/13 05:37:02;;;;;;;53.53;21.75;;;;;;;-3.78;100.00;101257.09;5034984;28;20041;-65
2022/12/13 05:39:27;;;;;;;40.70;18.90;;;;;;;-3.89;100.00;101254.19;5033724;28;20127;-66
2022/12/13 05:41:53;;;;;;;39.80;18.90;;;;;;;-3.98;100.00;101254.75;5033412;28;20032;-61
2022/12/13 05:44:18;;;;;;;36.53;18.02;;;;;;;-4.07;100.00;101257.91;5031540;28;20017;-64
2022/12/13 05:46:43;;;;;;;48.85;18.35;;;;;;;-4.17;100.00;101251.56;5033317;28;20033;-65
2022/12/13 05:49:09;;;;;;;41.25;17.52;;;;;;;-4.24;100.00;101247.06;5030354;28;20083;-66
2022/12/13 05:51:34;;;;;;;35.53;17.77;;;;;;;-4.29;100.00;101240.84;5030935;28;20064;-64
2022/12/13 05:53:59;;;;;;;41.30;19.65;;;;;;;-4.26;100.00;101243.53;5031471;28;20040;-66
2022/12/13 05:56:25;;;;;;;48.03;20.38;;;;;;;-4.25;100.00;101241.03;5033035;28;20100;-65
2022/12/13 05:58:50;;;;;;;48.92;20.13;;;;;;;-4.30;100.00;101237.44;5031799;28;20065;-64
2022/12/13 06:01:16;;;;;;;35.83;18.48;;;;;;;-4.33;100.00;101239.91;5031702;28;20550;-63
2022/12/13 06:03:42;;;;;;;40.60;19.45;;;;;;;-4.39;100.00;101247.41;5031523;28;20222;-67
2022/12/13 06:06:09;;;;;;;37.65;19.45;;;;;;;-4.41;100.00;101242.19;5031904;28;20128;-64
2022/12/13 06:08:34;;;;;;;39.30;19.08;;;;;;;-4.40;100.00;101246.50;5031285;28;20025;-66
2022/12/13 06:11:01;;;;;;;37.28;19.60;;;;;;;-4.40;100.00;101241.38;5032659;28;20514;-63
2022/12/13 06:13:26;;;;;;;44.85;20.65;;;;;;;-4.42;100.00;101235.31;5032258;28;20447;-67
2022/12/13 06:15:52;;;;;;;46.08;19.95;;;;;;;-4.41;100.00;101237.06;5033040;28;20033;-66
2022/12/13 06:18:18;;;;;;;46.20;19.45;;;;;;;-4.42;100.00;101232.75;5030445;28;20375;-66
2022/12/13 06:20:43;;;;;;;31.80;17.27;;;;;;;-4.42;100.00;101222.44;5032482;28;20479;-65
2022/12/13 06:23:08;;;;;;;41.15;19.17;;;;;;;-4.47;100.00;101223.97;5032298;28;20033;-65
2022/12/13 06:25:35;;;;;;;34.53;16.98;;;;;;;-4.48;100.00;101229.97;5032653;28;20021;-65
2022/12/13 06:28:01;;;;;;;39.38;18.30;;;;;;;-4.50;100.00;101234.16;5031439;28;20048;-65
2022/12/13 06:30:26;;;;;;;38.78;19.33;;;;;;;-4.50;100.00;101234.16;5032312;28;20152;-64
2022/12/13 06:32:51;;;;;;;43.08;18.98;;;;;;;-4.48;100.00;101237.66;5031088;28;20074;-65
2022/12/13 06:35:17;;;;;;;46.28;22.95;;;;;;;-4.44;100.00;101240.41;5032180;28;20029;-67
2022/12/13 06:37:42;;;;;;;51.90;22.42;;;;;;;-4.44;100.00;101229.22;5028167;28;20065;-65
2022/12/13 06:40:08;;;;;;;47.97;23.55;;;;;;;-4.41;100.00;101237.06;5021251;28;20029;-65
2022/12/13 06:42:33;;;;;;;43.10;21.65;;;;;;;-4.42;100.00;101230.16;5022095;28;20064;-67
2022/12/13 06:44:59;;;;;;;44.40;21.85;;;;;;;-4.41;100.00;101239.63;5022114;28;20476;-66
2022/12/13 06:47:25;;;;;;;50.45;22.25;;;;;;;-4.39;100.00;101235.41;5020572;28;20021;-57
2022/12/13 06:49:50;;;;;;;46.78;22.05;;;;;;;-4.42;100.00;101239.56;5019981;28;20018;-66
2022/12/13 06:52:15;;;;;;;48.22;22.05;;;;;;;-4.42;100.00;101247.28;5022236;28;20025;-66
2022/12/13 06:54:41;;;;;;;46.90;21.85;;;;;;;-4.46;100.00;101247.19;5020274;28;20048;-63
2022/12/13 06:57:07;;;;;;;41.22;20.40;;;;;;;-4.48;100.00;101243.66;5022771;28;20025;-65
2022/12/13 06:59:32;;;;;;;44.58;20.40;;;;;;;-4.51;100.00;101242.72;5021441;28;20528;-66
2022/12/13 07:01:58;;;;;;;38.58;20.05;;;;;;;-4.53;100.00;101234.06;5019922;28;20042;-61
2022/12/13 07:04:23;;;;;;;43.00;20.02;;;;;;;-4.49;100.00;101230.78;5031120;28;20030;-65
2022/12/13 07:06:48;;;;;;;36.55;19.42;;;;;;;-4.49;100.00;101239.34;5031572;28;20116;-64
2022/12/13 07:09:14;;;;;;;38.22;19.05;;;;;;;-4.50;100.00;101239.31;5030975;28;20038;-65
2022/12/13 07:11:39;;;;;;;40.63;18.48;;;;;;;-4.52;100.00;101238.41;5031252;28;20026;-62
2022/12/13 07:14:04;;;;;;;42.45;19.42;;;;;;;-4.54;100.00;101235.78;5030286;28;20064;-65
2022/12/13 07:16:30;;;;;;;41.88;19.92;;;;;;;-4.53;100.00;101242.66;5030137;28;20029;-67
2022/12/13 07:18:56;;;;;;;40.13;19.67;;;;;;;-4.52;100.00;101235.81;5027210;28;20025;-60
2022/12/13 07:21:22;;;;;;;46.47;22.00;;;;;;;-4.42;100.00;101237.00;5013871;28;20113;-66
2022/12/13 07:23:49;;;;;;;42.45;20.48;;;;;;;-4.43;100.00;101246.41;5008094;28;20374;-63
2022/12/13 07:26:14;;;;;;;39.53;20.40;;;;;;;-4.46;100.00;101248.88;5027215;28;20459;-65
2022/12/13 07:28:40;;;;;;;56.92;21.02;;;;;;;-4.45;100.00;101250.66;5028756;28;20073;-66
2022/12/13 07:31:06;;;;;;;43.88;20.20;;;;;;;-4.44;100.00;101252.38;5030779;28;20030;-65
2022/12/13 07:33:32;;;;;;;44.75;19.90;;;;;;;-4.41;100.00;101254.19;5029597;28;20052;-66
2022/12/13 07:36:05;;;;;;;43.00;19.65;;;;;;;-4.40;100.00;101256.81;5030460;28;20411;-61
2022/12/13 07:38:32;;;;;;;47.25;21.88;;;;;;;-4.37;100.00;101258.63;5029904;28;20049;-61
2022/12/13 07:40:57;;;;;;;49.63;21.63;;;;;;;-4.36;100.00;101256.09;5030091;28;20463;-66
2022/12/13 07:43:23;;;;;;;40.58;19.15;;;;;;;-4.38;100.00;101256.88;5030438;28;20025;-65
2022/12/13 07:45:49;;;;;;;39.05;19.23;;;;;;;-4.41;100.00;101265.34;5030373;28;20537;-66
2022/12/13 07:48:14;;;;;;;40.88;18.90;;;;;;;-4.39;100.00;101267.97;5031636;28;20029;-67
2022/12/13 07:50:40;;;;;;;44.67;21.77;;;;;;;-4.32;100.00;101264.78;5029898;28;20030;-61
2022/12/13 07:53:07;;;;;;;45.95;21.15;;;;;;;-4.29;100.00;101261.44;5028898;28;20031;-64
2022/12/13 07:55:33;;;;;;;44.65;21.02;;;;;;;-4.26;100.00;101261.56;5028514;28;20030;-60
2022/12/13 07:58:09;;;;;;;48.03;22.48;;;;;;;-4.28;100.00;101261.50;5029276;28;20057;-65
2022/12/13 08:00:36;;;;;;;47.72;24.33;;;;;;;-4.20;100.00;101254.94;5029436;28;20110;-66
2022/12/13 08:03:01;;;;;;;44.78;22.95;;;;;;;-4.16;100.00;101255.03;5028148;28;20051;-62
2022/12/13 08:05:27;;;;;;;50.35;23.02;;;;;;;-4.16;100.00;101255.03;5028694;28;20026;-65
2022/12/13 08:07:54;;;;;;;48.08;23.50;;;;;;;-4.12;100.00;101257.75;5031186;28;20522;-62
2022/12/13 08:10:19;;;;;;;43.67;22.38;;;;;;;-4.09;100.00;101260.41;5032281;28;20083;-66
2022/12/13 08:12:45;;;;;;;47.10;21.90;;;;;;;-4.07;100.00;101263.03;5029428;28;20044;-66
2022/12/13 08:15:10;;;;;;;46.00;21.95;;;;;;;-4.04;100.00;101264.88;5029032;28;20068;-66
2022/12/13 08:17:35;;;;;;;46.67;20.73;;;;;;;-3.99;100.00;101268.44;5022057;28;20026;-64
2022/12/13 08:20:01;;;;;;;44.38;21.48;;;;;;;-3.94;100.00;101272.06;5033478;28;20026;-66
2022/12/13 08:22:26;;;;;;;50.22;21.33;;;;;;;-3.88;100.00;101279.13;5028036;28;20029;-66
2022/12/13 08:24:52;;;;;;;45.28;21.45;;;;;;;-3.88;100.00;101272.28;5025763;28;20097;-63
2022/12/13 08:27:17;;;;;;;42.65;21.48;;;;;;;-3.86;100.00;101277.44;5028294;28;20018;-65
2022/12/13 08:29:42;;;;;;;44.17;21.33;;;;;;;-3.82;100.00;101279.31;5023850;28;20025;-65
2022/12/13 08:32:09;;;;;;;41.92;21.73;;;;;;;-3.81;100.00;101276.78;5017336;28;20116;-65
2022/12/13 08:34:35;;;;;;;58.00;23.55;;;;;;;-3.69;100.00;101278.91;5027358;28;20100;-65
2022/12/13 08:37:01;;;;;;;45.85;22.27;;;;;;;-3.61;100.00;101285.97;5027522;28;20121;-63
2022/12/13 08:39:26;;;;;;;51.17;23.27;;;;;;;-3.61;100.00;101281.69;5026865;28;20558;-64
2022/12/13 08:41:51;;;;;;;48.85;22.80;;;;;;;-3.59;100.00;101280.03;5027991;28;20037;-61
2022/12/13 08:44:17;;;;;;;53.45;23.02;;;;;;;-3.58;100.00;101286.09;5027645;28;20407;-64
2022/12/13 08:46:42;;;;;;;47.53;21.92;;;;;;;-3.50;100.00;101294.03;5025584;28;20090;-65
2022/12/13 08:49:09;;;;;;;59.03;26.77;;;;;;;-3.45;100.00;101289.91;5027027;28;20100;-66
2022/12/13 08:51:34;;;;;;;57.10;26.15;;;;;;;-3.43;100.00;101290.84;5024387;28;21148;-64
2022/12/13 08:54:00;;;;;;;63.38;29.40;;;;;;;-3.40;100.00;101290.94;5024032;28;20417;-64
2022/12/13 08:56:25;;;;;;;55.92;27.17;;;;;;;-3.32;100.00;101286.00;5025002;28;20468;-65
2022/12/13 08:58:50;;;;;;;57.78;27.35;;;;;;;-3.28;100.00;101279.25;5025499;28;20368;-66
2022/12/13 09:01:16;;;;;;;62.03;28.13;;;;;;;-3.24;100.00;101288.81;5027585;28;20041;-65
2022/12/13 09:03:41;;;;;;;59.03;29.00;;;;;;;-3.09;100.00;101284.13;5026763;28;20040;-59
2022/12/13 09:06:12;;;;;;;59.35;27.85;;;;;;;-3.04;100.00;101289.44;5027206;28;20100;-62
2022/12/13 09:08:37;;;;;;;54.28;28.30;;;;;;;-3.06;100.00;101283.34;5025963;28;20049;-60
2022/12/13 09:11:03;;;;;;;57.10;27.65;;;;;;;-2.95;100.00;101279.38;5026951;28;20049;-65
2022/12/13 09:13:31;;;;;;;54.40;26.70;;;;;;;-2.88;100.00;101279.56;5027682;28;20021;-63
2022/12/13 09:15:56;;;;;;;59.95;27.05;;;;;;;-2.83;100.00;101278.00;5027440;28;20025;-65
2022/12/13 09:18:22;;;;;;;64.65;27.33;;;;;;;-2.82;100.00;101280.63;5027837;28;20438;-66
2022/12/13 09:20:47;;;;;;;54.40;27.15;;;;;;;-2.75;100.00;101283.34;5028086;28;20044;-64
2022/12/13 09:23:13;;;;;;;55.00;26.73;;;;;;;-2.70;100.00;101280.09;5027442;28;20037;-66
2022/12/13 09:25:38;;;;;;;61.10;24.63;;;;;;;-2.62;100.00;101285.44;5024418;28;20053;-65
2022/12/13 09:28:06;;;;;;;48.92;24.63;;;;;;;-2.51;100.00;101279.69;5018442;28;20115;-61
2022/12/13 09:30:31;;;;;;;53.22;25.75;;;;;;;-2.60;100.00;101281.22;5018414;28;20014;-66
2022/12/13 09:32:57;;;;;;;50.45;24.52;;;;;;;-2.45;100.00;101279.88;5015768;28;20467;-63
2022/12/13 09:35:22;;;;;;;46.83;24.67;;;;;;;-2.31;100.00;101283.72;5019975;28;20089;-65
2022/12/13 09:37:47;;;;;;;53.80;25.92;;;;;;;-2.35;100.00;101283.59;5017692;28;20038;-65
2022/12/13 09:40:22;;;;;;;45.75;23.30;;;;;;;-2.49;100.00;101280.63;5018215;28;20021;-63
2022/12/13 09:42:51;;;;;;;49.95;25.27;;;;;;;-2.31;100.00;101277.66;5017606;28;20030;-63
2022/12/13 09:45:17;;;;;;;48.38;24.85;;;;;;;-2.23;100.00;101280.47;5016589;28;20113;-64
2022/12/13 09:47:44;;;;;;;49.80;23.38;;;;;;;-2.11;100.00;101278.16;5026500;28;20167;-63
2022/12/13 09:50:39;;;;;;;49.08;24.58;;;;;;;-2.17;100.00;101275.44;5037887;28;20036;-58
2022/12/13 09:53:05;;;;;;;49.78;23.70;;;;;;;-2.06;100.00;101279.19;5027715;28;20124;-62
2022/12/13 09:55:38;;;;;;;44.85;22.55;;;;;;;-2.11;100.00;101280.75;5027269;28;20029;-68
2022/12/13 09:58:21;;;;;;;44.00;24.02;;;;;;;-2.00;100.00;101278.44;5028301;28;20037;-64
2022/12/13 10:00:48;;;;;;;43.80;23.15;;;;;;;-1.98;100.00;101275.91;5027932;28;20031;-66
2022/12/13 10:03:15;;;;;;;53.53;25.15;;;;;;;-1.84;100.00;101271.94;5022052;28;20397;-64
2022/12/13 10:05:44;;;;;;;54.53;24.42;;;;;;;-1.74;100.00;101272.19;5016855;28;20062;-64
2022/12/13 10:08:13;;;;;;;;;;;;;;;-1.78;100.00;101264.34;5020923;28;20479;-63
2022/12/13 10:10:38;;;;;;;44.10;22.95;;;;;;;-1.63;100.00;101262.09;5030519;28;19924;-63
2022/12/13 10:13:14;;;;;;;45.45;22.73;;;;;;;-1.52;100.00;101258.06;5015703;28;20029;-60
2022/12/13 10:15:42;;;;;;;46.53;23.98;;;;;;;-1.36;100.00;101254.09;5013693;28;20030;-63
2022/12/13 10:18:09;;;;;;;52.45;24.58;;;;;;;-1.33;100.00;101246.41;5012566;28;20021;-62
2022/12/13 10:20:35;;;;;;;41.65;23.48;;;;;;;-1.20;100.00;101249.28;5022886;28;20159;-65
2022/12/13 10:23:01;;;;;;;51.22;23.73;;;;;;;-1.11;100.00;101246.88;5015211;28;20110;-62
2022/12/13 10:25:49;;;;;;;39.97;23.25;;;;;;;-1.16;100.00;101244.19;5011785;28;20595;-63
2022/12/13 10:28:16;;;;;;;53.28;25.58;;;;;;;-1.01;100.00;101242.78;5016286;28;20055;-63
2022/12/13 10:30:42;;;;;;;47.58;25.52;;;;;;;-1.06;100.00;101237.50;5028571;28;20080;-65
2022/12/13 10:33:20;;;;;;;49.58;24.63;;;;;;;-1.03;100.00;101242.72;5028671;28;20030;-60
2022/12/13 10:36:23;;;;;;;44.38;22.08;;;;;;;-0.93;100.00;101230.00;5029556;28;20526;-61
2022/12/13 10:38:49;;;;;;;48.60;26.10;;;;;;;-0.83;100.00;101228.44;5021685;28;20078;-62
2022/12/13 10:41:35;;;;;;;54.85;24.75;;;;;;;-0.87;100.00;101235.28;5014755;28;20538;-64
2022/12/13 10:44:07;;;;;;;47.33;23.83;;;;;;;-0.92;100.00;101218.78;5008178;28;20022;-64
2022/12/13 10:46:32;;;;;;;45.30;24.63;;;;;;;-0.80;100.00;101220.75;5009258;28;20492;-63
2022/12/13 10:48:58;;;;;;;46.83;24.40;;;;;;;-0.78;100.00;101229.44;5013173;28;20034;-63
2022/12/13 10:51:23;;;;;;;46.70;23.30;;;;;;;-0.68;100.00;101226.16;5010656;28;20388;-64
2022/12/13 10:53:52;;;;;;;50.47;25.85;;;;;;;-0.59;100.00;101215.13;5016281;28;20467;-64
2022/12/13 10:56:18;;;;;;;49.42;25.50;;;;;;;-0.47;100.00;101213.56;5017994;28;20021;-61
2022/12/13 10:58:46;;;;;;;50.60;25.75;;;;;;;-0.23;100.00;101214.84;5018814;28;20053;-64
2022/12/13 11:01:17;;;;;;;51.90;26.00;;;;;;;-0.17;100.00;101212.38;5019952;28;20033;-62
2022/12/13 11:04:01;;;;;;;47.72;24.83;;;;;;;-0.11;100.00;101207.28;5017534;28;20049;-65
2022/12/13 11:06:28;;;;;;;42.78;23.92;;;;;;;-0.04;100.00;101205.66;5015950;28;20018;-64
2022/12/13 11:08:54;;;;;;;44.20;23.13;;;;;;;0.07;100.00;101205.84;5028231;28;20034;-62
2022/12/13 11:11:29;;;;;;;41.92;23.25;;;;;;;0.11;100.00;101205.91;5030256;28;20380;-64